createdAt,value
2024-01-27T00:00:03.426Z,5.03
2024-01-27T00:01:03.331Z,4.91
2024-01-27T00:02:03.236Z,5.00
2024-01-27T00:03:03.175Z,4.92
2024-01-27T00:04:03.051Z,4.96
2024-01-27T00:05:03.015Z,4.93
2024-01-27T00:06:02.945Z,4.85
2024-01-27T00:07:02.964Z,4.95
2024-01-27T00:08:02.720Z,4.96
2024-01-27T00:09:02.657Z,4.92
2024-01-27T00:10:02.585Z,4.96
2024-01-27T00:11:02.478Z,4.87
2024-01-27T00:12:02.411Z,4.93
2024-01-27T00:13:02.292Z,4.93
2024-01-27T00:14:02.217Z,4.87
2024-01-27T00:15:02.174Z,4.85
2024-01-27T00:16:02.040Z,4.88
2024-01-27T00:17:01.959Z,4.79
2024-01-27T00:18:01.953Z,4.73
2024-01-27T00:19:01.889Z,4.83
2024-01-27T00:20:01.752Z,4.79
2024-01-27T00:21:01.648Z,4.66
2024-01-27T00:22:01.564Z,4.68
2024-01-27T00:23:01.449Z,4.79
2024-01-27T00:24:01.404Z,4.66
2024-01-27T00:25:01.268Z,4.64
2024-01-27T00:26:01.182Z,4.66
2024-01-27T00:27:01.164Z,4.72
2024-01-27T00:28:01.012Z,4.64
2024-01-27T00:29:00.930Z,4.62
2024-01-27T00:30:00.884Z,4.55
2024-01-27T00:31:00.753Z,4.54
2024-01-27T00:32:00.673Z,4.55
2024-01-27T00:33:00.683Z,4.62
2024-01-27T00:34:00.579Z,4.55
2024-01-27T00:35:00.445Z,4.55
2024-01-27T00:36:00.357Z,4.48
2024-01-27T00:37:00.257Z,4.43
2024-01-27T00:38:00.161Z,4.43
2024-01-27T00:39:00.097Z,4.36
2024-01-27T00:39:59.995Z,4.32
2024-01-27T00:40:59.914Z,4.28
2024-01-27T00:41:59.902Z,4.20
2024-01-27T00:42:59.741Z,4.16
2024-01-27T00:43:59.650Z,4.15
2024-01-27T00:44:59.597Z,4.10
2024-01-27T00:45:59.486Z,4.10
2024-01-27T00:46:59.393Z,4.02
2024-01-27T00:47:59.488Z,4.04
2024-01-27T00:48:59.298Z,4.04
2024-01-27T00:49:59.151Z,3.97
2024-01-27T00:50:59.090Z,4.07
2024-01-27T00:51:58.991Z,4.12
2024-01-27T00:52:59.562Z,4.01
2024-01-27T00:53:58.817Z,3.94
2024-01-27T00:54:58.714Z,4.00
2024-01-27T00:55:58.631Z,4.01
2024-01-27T00:56:58.589Z,3.93
2024-01-27T00:57:58.455Z,4.01
2024-01-27T00:58:58.369Z,4.02
2024-01-27T00:59:58.359Z,3.98
2024-01-27T01:00:58.342Z,4.08
2024-01-27T01:01:58.118Z,4.05
2024-01-27T01:02:58.055Z,4.04
2024-01-27T01:03:57.987Z,3.98
2024-01-27T01:04:57.853Z,3.87
2024-01-27T01:05:57.850Z,3.98
2024-01-27T01:06:57.802Z,3.92
2024-01-27T01:07:57.601Z,3.94
2024-01-27T01:08:57.545Z,3.93
2024-01-27T01:09:57.425Z,3.92
2024-01-27T01:10:57.344Z,3.90
2024-01-27T01:11:57.303Z,3.93
2024-01-27T01:12:57.175Z,3.87
2024-01-27T01:13:57.088Z,3.90
2024-01-27T01:14:57.050Z,3.87
2024-01-27T01:15:56.914Z,3.83
2024-01-27T01:16:56.833Z,3.84
2024-01-27T01:17:56.885Z,3.83
2024-01-27T01:18:56.748Z,3.69
2024-01-27T01:19:56.617Z,3.74
2024-01-27T01:20:56.529Z,3.69
2024-01-27T01:21:56.411Z,3.72
2024-01-27T01:22:56.332Z,3.57
2024-01-27T01:23:56.275Z,3.61
2024-01-27T01:24:56.152Z,3.64
2024-01-27T01:25:56.072Z,3.50
2024-01-27T01:26:56.015Z,3.47
2024-01-27T01:27:55.886Z,3.51
2024-01-27T01:28:55.913Z,3.47
2024-01-27T01:29:55.960Z,3.39
2024-01-27T01:30:55.640Z,3.43
2024-01-27T01:31:55.639Z,3.41
2024-01-27T01:32:55.617Z,3.35
2024-01-27T01:33:55.514Z,3.35
2024-01-27T01:34:55.346Z,3.32
2024-01-27T01:35:55.247Z,3.35
2024-01-27T01:36:55.119Z,3.35
2024-01-27T01:37:55.053Z,3.24
2024-01-27T01:38:54.994Z,3.27
2024-01-27T01:39:54.869Z,3.14
2024-01-27T01:40:54.791Z,3.14
2024-01-27T01:41:54.741Z,3.19
2024-01-27T01:42:54.620Z,3.16
2024-01-27T01:43:54.519Z,3.13
2024-01-27T01:44:54.484Z,3.14
2024-01-27T01:45:54.349Z,3.10
2024-01-27T01:46:54.266Z,3.10
2024-01-27T01:47:54.520Z,3.13
2024-01-27T01:48:54.254Z,2.96
2024-01-27T01:49:54.281Z,3.06
2024-01-27T01:50:53.928Z,3.07
2024-01-27T01:51:53.839Z,3.03
2024-01-27T01:52:53.769Z,3.03
2024-01-27T01:53:53.693Z,3.06
2024-01-27T01:54:53.588Z,2.98
2024-01-27T01:55:53.491Z,2.98
2024-01-27T01:56:53.429Z,2.95
2024-01-27T01:57:53.329Z,3.09
2024-01-27T01:58:53.238Z,2.96
2024-01-27T01:59:53.229Z,2.96
2024-01-27T02:00:53.212Z,2.98
2024-01-27T02:01:52.993Z,2.93
2024-01-27T02:02:52.924Z,2.95
2024-01-27T02:03:52.817Z,3.04
2024-01-27T02:04:52.777Z,3.04
2024-01-27T02:05:52.732Z,3.04
2024-01-27T02:06:52.687Z,3.01
2024-01-27T02:07:52.467Z,3.06
2024-01-27T02:08:52.399Z,2.98
2024-01-27T02:09:52.296Z,3.03
2024-01-27T02:10:52.210Z,3.01
2024-01-27T02:11:52.163Z,3.07
2024-01-27T02:12:52.040Z,3.01
2024-01-27T02:13:51.949Z,3.01
2024-01-27T02:14:51.859Z,2.99
2024-01-27T02:15:51.818Z,2.98
2024-01-27T02:16:51.684Z,2.96
2024-01-27T02:17:51.689Z,2.96
2024-01-27T02:18:51.626Z,2.93
2024-01-27T02:19:51.540Z,2.85
2024-01-27T02:20:51.446Z,2.78
2024-01-27T02:21:51.260Z,2.80
2024-01-27T02:22:51.173Z,2.74
2024-01-27T02:23:51.158Z,2.63
2024-01-27T02:24:51.014Z,2.67
2024-01-27T02:25:50.911Z,2.52
2024-01-27T02:26:50.857Z,2.62
2024-01-27T02:27:50.768Z,2.52
2024-01-27T02:28:50.655Z,2.49
2024-01-27T02:29:50.609Z,2.50
2024-01-27T02:30:50.501Z,2.49
2024-01-27T02:31:50.395Z,2.57
2024-01-27T02:32:50.437Z,2.53
2024-01-27T02:33:50.405Z,2.52
2024-01-27T02:34:50.186Z,2.53
2024-01-27T02:35:50.080Z,2.46
2024-01-27T02:36:49.981Z,2.50
2024-01-27T02:37:49.878Z,2.46
2024-01-27T02:38:49.864Z,2.49
2024-01-27T02:39:49.716Z,2.37
2024-01-27T02:40:49.625Z,2.44
2024-01-27T02:41:49.583Z,2.49
2024-01-27T02:42:49.453Z,2.35
2024-01-27T02:43:49.361Z,2.48
2024-01-27T02:44:49.302Z,2.48
2024-01-27T02:45:49.191Z,2.38
2024-01-27T02:46:49.107Z,2.34
2024-01-27T02:47:49.187Z,2.26
2024-01-27T02:48:49.087Z,2.17
2024-01-27T02:49:48.904Z,2.16
2024-01-27T02:50:48.857Z,2.21
2024-01-27T02:51:48.670Z,2.23
2024-01-27T02:52:48.588Z,2.16
2024-01-27T02:53:48.559Z,2.19
2024-01-27T02:54:48.433Z,2.19
2024-01-27T02:55:48.340Z,2.20
2024-01-27T02:56:48.300Z,2.23
2024-01-27T02:57:48.157Z,2.26
2024-01-27T02:58:48.061Z,2.09
2024-01-27T02:59:48.031Z,2.05
2024-01-27T03:00:47.935Z,2.05
2024-01-27T03:01:47.810Z,2.10
2024-01-27T03:02:47.750Z,2.10
2024-01-27T03:03:47.689Z,2.05
2024-01-27T03:04:47.573Z,2.05
2024-01-27T03:05:47.561Z,2.03
2024-01-27T03:06:47.465Z,2.02
2024-01-27T03:07:47.291Z,2.09
2024-01-27T03:08:47.238Z,2.05
2024-01-27T03:09:47.115Z,2.01
2024-01-27T03:10:47.028Z,2.09
2024-01-27T03:11:46.962Z,2.02
2024-01-27T03:12:46.857Z,2.12
2024-01-27T03:13:46.789Z,2.12
2024-01-27T03:14:46.707Z,2.01
2024-01-27T03:15:46.604Z,2.03
2024-01-27T03:16:46.523Z,2.06
2024-01-27T03:17:46.529Z,2.06
2024-01-27T03:18:46.480Z,2.06
2024-01-27T03:19:49.171Z,2.05
2024-01-27T03:20:46.220Z,2.12
2024-01-27T03:21:46.078Z,2.13
2024-01-27T03:22:45.998Z,2.20
2024-01-27T03:23:45.905Z,2.14
2024-01-27T03:24:45.820Z,2.20
2024-01-27T03:25:45.740Z,2.21
2024-01-27T03:26:45.660Z,2.17
2024-01-27T03:27:45.561Z,2.21
2024-01-27T03:28:45.484Z,2.28
2024-01-27T03:29:45.391Z,2.23
2024-01-27T03:30:45.302Z,2.17
2024-01-27T03:31:45.210Z,2.21
2024-01-27T03:32:45.246Z,2.24
2024-01-27T03:33:45.147Z,2.28
2024-01-27T03:34:45.105Z,2.16
2024-01-27T03:35:44.871Z,2.19
2024-01-27T03:36:44.783Z,2.19
2024-01-27T03:37:44.689Z,2.14
2024-01-27T03:38:44.609Z,2.13
2024-01-27T03:39:44.533Z,2.20
2024-01-27T03:40:44.430Z,2.26
2024-01-27T03:41:44.361Z,2.17
2024-01-27T03:42:44.266Z,2.21
2024-01-27T03:43:44.175Z,2.23
2024-01-27T03:44:44.083Z,2.16
2024-01-27T03:45:44.009Z,2.19
2024-01-27T03:46:43.928Z,2.06
2024-01-27T03:47:43.927Z,2.12
2024-01-27T03:48:43.877Z,1.99
2024-01-27T03:49:43.759Z,2.05
2024-01-27T03:50:43.579Z,1.94
2024-01-27T03:51:43.481Z,2.03
2024-01-27T03:52:43.397Z,1.83
2024-01-27T03:53:43.301Z,1.79
2024-01-27T03:54:43.219Z,1.68
2024-01-27T03:55:43.131Z,1.69
2024-01-27T03:56:43.071Z,1.69
2024-01-27T03:57:42.972Z,1.76
2024-01-27T03:58:42.876Z,1.68
2024-01-27T03:59:42.797Z,1.62
2024-01-27T04:00:45.782Z,1.62
2024-01-27T04:01:42.625Z,1.54
2024-01-27T04:02:42.530Z,1.61
2024-01-27T04:03:42.471Z,1.64
2024-01-27T04:04:42.380Z,1.54
2024-01-27T04:05:42.401Z,1.44
2024-01-27T04:06:42.373Z,1.47
2024-01-27T04:07:42.109Z,1.48
2024-01-27T04:08:42.008Z,1.40
2024-01-27T04:09:42.043Z,1.37
2024-01-27T04:10:41.847Z,1.37
2024-01-27T04:11:41.763Z,1.32
2024-01-27T04:12:41.692Z,1.29
2024-01-27T04:13:41.576Z,1.25
2024-01-27T04:14:41.515Z,1.23
2024-01-27T04:15:41.480Z,1.22
2024-01-27T04:16:41.443Z,1.20
2024-01-27T04:17:41.304Z,1.16
2024-01-27T04:18:41.276Z,1.19
2024-01-27T04:19:41.253Z,1.08
2024-01-27T04:20:40.970Z,1.11
2024-01-27T04:21:40.889Z,1.07
2024-01-27T04:22:40.803Z,0.94
2024-01-27T04:23:40.725Z,0.94
2024-01-27T04:24:40.627Z,0.86
2024-01-27T04:25:40.537Z,0.74
2024-01-27T04:26:40.451Z,0.74
2024-01-27T04:27:40.400Z,0.74
2024-01-27T04:28:40.280Z,0.79
2024-01-27T04:29:40.187Z,0.77
2024-01-27T04:30:40.229Z,0.84
2024-01-27T04:31:40.022Z,0.86
2024-01-27T04:32:40.003Z,0.82
2024-01-27T04:33:39.950Z,0.82
2024-01-27T04:34:39.799Z,0.86
2024-01-27T04:35:39.665Z,0.83
2024-01-27T04:36:39.657Z,0.86
2024-01-27T04:37:39.494Z,0.82
2024-01-27T04:38:39.412Z,0.80
2024-01-27T04:39:39.378Z,0.87
2024-01-27T04:40:39.237Z,0.86
2024-01-27T04:41:39.155Z,0.89
2024-01-27T04:42:39.068Z,0.84
2024-01-27T04:43:38.979Z,0.79
2024-01-27T04:44:38.890Z,0.86
2024-01-27T04:45:38.880Z,0.86
2024-01-27T04:46:38.748Z,0.79
2024-01-27T04:47:38.645Z,0.80
2024-01-27T04:48:38.658Z,0.84
2024-01-27T04:49:38.542Z,0.86
2024-01-27T04:50:38.378Z,0.83
2024-01-27T04:51:38.352Z,0.84
2024-01-27T04:52:38.199Z,0.83
2024-01-27T04:53:38.104Z,0.87
2024-01-27T04:54:38.130Z,0.82
2024-01-27T04:55:37.937Z,0.84
2024-01-27T04:56:37.861Z,0.87
2024-01-27T04:57:37.776Z,0.75
2024-01-27T04:58:37.667Z,0.74
2024-01-27T04:59:37.586Z,0.68
2024-01-27T05:00:37.646Z,0.66
2024-01-27T05:01:37.410Z,0.62
2024-01-27T05:02:37.324Z,0.68
2024-01-27T05:03:37.274Z,0.68
2024-01-27T05:04:37.155Z,0.71
2024-01-27T05:05:37.212Z,0.62
2024-01-27T05:06:37.018Z,0.62
2024-01-27T05:07:36.886Z,0.64
2024-01-27T05:08:36.797Z,0.62
2024-01-27T05:09:36.769Z,0.61
2024-01-27T05:10:36.627Z,0.61
2024-01-27T05:11:36.545Z,0.59
2024-01-27T05:12:36.483Z,0.62
2024-01-27T05:13:36.371Z,0.64
2024-01-27T05:14:36.283Z,0.50
2024-01-27T05:15:36.254Z,0.56
2024-01-27T05:16:36.106Z,0.61
2024-01-27T05:17:36.041Z,0.62
2024-01-27T05:18:36.042Z,0.64
2024-01-27T05:19:35.941Z,0.56
2024-01-27T05:20:35.755Z,0.46
2024-01-27T05:21:35.697Z,0.53
2024-01-27T05:22:35.575Z,0.52
2024-01-27T05:23:35.494Z,0.45
2024-01-27T05:24:35.432Z,0.35
2024-01-27T05:25:35.324Z,0.28
2024-01-27T05:26:35.265Z,0.27
2024-01-27T05:27:35.184Z,0.22
2024-01-27T05:28:35.056Z,0.21
2024-01-27T05:29:34.972Z,0.34
2024-01-27T05:30:34.971Z,0.21
2024-01-27T05:31:34.790Z,0.28
2024-01-27T05:32:34.810Z,0.36
2024-01-27T05:33:34.728Z,0.29
2024-01-27T05:34:34.620Z,0.28
2024-01-27T05:35:34.448Z,0.42
2024-01-27T05:36:34.380Z,0.35
2024-01-27T05:37:34.281Z,0.32
2024-01-27T05:38:34.180Z,0.35
2024-01-27T05:39:34.152Z,0.47
2024-01-27T05:40:34.008Z,0.47
2024-01-27T05:41:33.933Z,0.46
2024-01-27T05:42:33.872Z,0.47
2024-01-27T05:43:33.751Z,0.39
2024-01-27T05:44:33.652Z,0.46
2024-01-27T05:45:33.596Z,0.45
2024-01-27T05:46:33.493Z,0.45
2024-01-27T05:47:33.517Z,0.45
2024-01-27T05:48:33.380Z,0.47
2024-01-27T05:49:33.263Z,0.45
2024-01-27T05:50:33.135Z,0.42
2024-01-27T05:51:33.150Z,0.43
2024-01-27T05:52:32.953Z,0.46
2024-01-27T05:53:32.892Z,0.49
2024-01-27T05:54:32.829Z,0.43
2024-01-27T05:55:32.701Z,0.32
2024-01-27T05:56:32.606Z,0.18
2024-01-27T05:57:32.603Z,-0.02
2024-01-27T05:58:32.444Z,0.03
2024-01-27T05:59:32.344Z,0.01
2024-01-27T06:00:32.381Z,0.03
2024-01-27T06:01:32.186Z,0.04
2024-01-27T06:02:32.073Z,0.07
2024-01-27T06:03:32.026Z,0.07
2024-01-27T06:04:31.924Z,0.10
2024-01-27T06:05:31.833Z,0.11
2024-01-27T06:06:31.811Z,0.04
2024-01-27T06:07:31.927Z,0.13
2024-01-27T06:08:31.565Z,0.17
2024-01-27T06:09:31.532Z,0.11
2024-01-27T06:10:31.375Z,0.21
2024-01-27T06:11:31.296Z,0.18
2024-01-27T06:12:31.302Z,0.14
2024-01-27T06:13:31.130Z,0.24
2024-01-27T06:14:31.030Z,0.11
2024-01-27T06:15:30.956Z,0.18
2024-01-27T06:16:30.851Z,0.18
2024-01-27T06:17:30.772Z,0.13
2024-01-27T06:18:30.846Z,0.14
2024-01-27T06:19:30.664Z,0.21
2024-01-27T06:20:30.567Z,0.18
2024-01-27T06:21:30.493Z,0.28
2024-01-27T06:22:30.338Z,0.22
2024-01-27T06:23:30.244Z,0.22
2024-01-27T06:24:30.310Z,0.25
2024-01-27T06:25:30.074Z,0.25
2024-01-27T06:26:29.977Z,0.31
2024-01-27T06:27:29.926Z,0.32
2024-01-27T06:28:29.812Z,0.31
2024-01-27T06:29:29.714Z,0.27
2024-01-27T06:30:29.648Z,0.24
2024-01-27T06:31:29.545Z,0.36
2024-01-27T06:32:29.488Z,0.40
2024-01-27T06:33:29.484Z,0.43
2024-01-27T06:34:29.332Z,0.47
2024-01-27T06:35:29.191Z,0.42
2024-01-27T06:36:29.133Z,0.43
2024-01-27T06:37:29.026Z,0.47
2024-01-27T06:38:28.948Z,0.52
2024-01-27T06:39:28.848Z,0.46
2024-01-27T06:40:28.750Z,0.52
2024-01-27T06:41:28.759Z,0.59
2024-01-27T06:42:28.669Z,0.53
2024-01-27T06:43:28.483Z,0.50
2024-01-27T06:44:28.414Z,0.62
2024-01-27T06:45:28.375Z,0.61
2024-01-27T06:46:28.233Z,0.52
2024-01-27T06:47:28.171Z,0.52
2024-01-27T06:48:28.374Z,0.50
2024-01-27T06:49:28.100Z,0.56
2024-01-27T06:50:27.875Z,0.56
2024-01-27T06:51:27.820Z,0.64
2024-01-27T06:52:27.706Z,0.65
2024-01-27T06:53:27.615Z,0.64
2024-01-27T06:54:27.567Z,0.57
2024-01-27T06:55:27.434Z,0.65
2024-01-27T06:56:27.348Z,0.66
2024-01-27T06:57:27.301Z,0.62
2024-01-27T06:58:27.179Z,0.66
2024-01-27T06:59:27.097Z,0.71
2024-01-27T07:00:27.092Z,0.59
2024-01-27T07:01:26.933Z,0.66
2024-01-27T07:02:26.844Z,0.65
2024-01-27T07:03:26.805Z,0.62
2024-01-27T07:04:26.745Z,0.64
2024-01-27T07:05:26.580Z,0.64
2024-01-27T07:06:26.565Z,0.59
2024-01-27T07:07:26.396Z,0.59
2024-01-27T07:08:26.289Z,0.64
2024-01-27T07:09:26.280Z,0.50
2024-01-27T07:10:26.121Z,0.61
2024-01-27T07:11:26.038Z,0.62
2024-01-27T07:12:26.009Z,0.65
2024-01-27T07:13:25.867Z,0.64
2024-01-27T07:14:25.784Z,0.61
2024-01-27T07:15:25.716Z,0.69
2024-01-27T07:16:25.604Z,0.66
2024-01-27T07:17:25.596Z,0.66
2024-01-27T07:18:25.519Z,0.72
2024-01-27T07:19:25.527Z,0.75
2024-01-27T07:20:25.265Z,0.80
2024-01-27T07:21:25.218Z,0.79
2024-01-27T07:22:25.356Z,0.71
2024-01-27T07:23:24.980Z,0.87
2024-01-27T07:24:24.930Z,0.87
2024-01-27T07:25:24.819Z,0.98
2024-01-27T07:26:24.722Z,0.90
2024-01-27T07:27:24.702Z,1.00
2024-01-27T07:28:24.578Z,1.11
2024-01-27T07:29:24.474Z,1.12
2024-01-27T07:30:24.548Z,1.12
2024-01-27T07:31:24.323Z,1.22
2024-01-27T07:32:24.197Z,1.25
2024-01-27T07:33:24.171Z,1.40
2024-01-27T07:34:24.096Z,1.38
2024-01-27T07:35:23.928Z,1.54
2024-01-27T07:36:23.883Z,1.62
2024-01-27T07:37:23.756Z,1.68
2024-01-27T07:38:23.741Z,1.84
2024-01-27T07:39:23.612Z,2.01
2024-01-27T07:40:23.496Z,1.94
2024-01-27T07:41:23.412Z,2.09
2024-01-27T07:42:23.320Z,2.09
2024-01-27T07:43:23.233Z,2.21
2024-01-27T07:44:23.184Z,2.39
2024-01-27T07:45:23.105Z,2.39
2024-01-27T07:46:22.970Z,2.56
2024-01-27T07:47:22.899Z,2.77
2024-01-27T07:48:22.876Z,2.84
2024-01-27T07:49:22.887Z,2.93
2024-01-27T07:50:22.615Z,3.01
2024-01-27T07:51:22.545Z,3.09
2024-01-27T07:52:22.455Z,3.25
2024-01-27T07:53:22.357Z,3.41
2024-01-27T07:54:22.319Z,3.56
2024-01-27T07:55:22.184Z,3.50
2024-01-27T07:56:22.090Z,3.66
2024-01-27T07:57:22.015Z,3.71
2024-01-27T07:58:21.932Z,3.84
2024-01-27T07:59:21.834Z,3.83
2024-01-27T08:00:21.791Z,4.10
2024-01-27T08:01:21.710Z,4.10
2024-01-27T08:02:21.607Z,4.26
2024-01-27T08:03:21.632Z,4.36
2024-01-27T08:04:21.423Z,4.30
2024-01-27T08:05:22.338Z,4.34
2024-01-27T08:06:21.283Z,4.36
2024-01-27T08:07:21.195Z,4.36
2024-01-27T08:08:21.050Z,4.34
2024-01-27T08:09:21.124Z,4.54
2024-01-27T08:10:20.878Z,4.73
2024-01-27T08:11:20.790Z,4.98
2024-01-27T08:12:20.741Z,5.08
2024-01-27T08:13:20.619Z,5.11
2024-01-27T08:14:20.532Z,5.17
2024-01-27T08:15:20.532Z,5.35
2024-01-27T08:16:20.372Z,5.47
2024-01-27T08:17:20.276Z,5.57
2024-01-27T08:18:20.373Z,5.53
2024-01-27T08:19:20.264Z,5.72
2024-01-27T08:20:20.016Z,5.71
2024-01-27T08:21:20.020Z,5.77
2024-01-27T08:22:19.845Z,5.90
2024-01-27T08:23:19.793Z,6.00
2024-01-27T08:24:19.709Z,6.17
2024-01-27T08:25:19.588Z,6.14
2024-01-27T08:26:19.502Z,6.11
2024-01-27T08:27:19.458Z,5.96
2024-01-27T08:28:19.334Z,5.96
2024-01-27T08:29:19.241Z,6.00
2024-01-27T08:30:19.191Z,6.07
2024-01-27T08:31:19.080Z,6.11
2024-01-27T08:32:19.048Z,6.07
2024-01-27T08:33:19.195Z,6.14
2024-01-27T08:34:19.067Z,6.13
2024-01-27T08:35:18.764Z,5.93
2024-01-27T08:36:18.754Z,5.93
2024-01-27T08:37:18.640Z,5.89
2024-01-27T08:38:18.473Z,5.95
2024-01-27T08:39:18.471Z,5.85
2024-01-27T08:40:18.315Z,5.86
2024-01-27T08:41:18.234Z,5.78
2024-01-27T08:42:18.148Z,5.83
2024-01-27T08:43:18.050Z,5.97
2024-01-27T08:44:17.964Z,5.96
2024-01-27T08:45:17.897Z,6.04
2024-01-27T08:46:17.794Z,6.13
2024-01-27T08:47:17.707Z,6.21
2024-01-27T08:48:17.807Z,6.36
2024-01-27T08:49:17.638Z,6.36
2024-01-27T08:50:17.451Z,6.32
2024-01-27T08:51:17.444Z,6.45
2024-01-27T08:52:17.283Z,6.45
2024-01-27T08:53:17.198Z,6.51
2024-01-27T08:54:17.223Z,6.68
2024-01-27T08:55:17.037Z,6.69
2024-01-27T08:56:16.942Z,6.81
2024-01-27T08:57:16.981Z,6.73
2024-01-27T08:58:16.780Z,6.87
2024-01-27T08:59:16.690Z,6.93
2024-01-27T09:00:16.728Z,6.96
2024-01-27T09:01:16.596Z,7.12
2024-01-27T09:02:16.440Z,7.20
2024-01-27T09:03:16.462Z,7.17
2024-01-27T09:04:16.288Z,7.27
2024-01-27T09:05:16.550Z,7.35
2024-01-27T09:06:16.308Z,7.39
2024-01-27T09:07:16.091Z,7.42
2024-01-27T09:08:15.933Z,7.45
2024-01-27T09:09:15.880Z,7.47
2024-01-27T09:10:16.228Z,7.45
2024-01-27T09:11:15.687Z,7.39
2024-01-27T09:12:15.665Z,7.44
2024-01-27T09:13:15.518Z,7.42
2024-01-27T09:14:15.441Z,7.41
2024-01-27T09:15:16.153Z,7.37
2024-01-27T09:16:15.259Z,7.45
2024-01-27T09:17:15.184Z,7.59
2024-01-27T09:18:15.153Z,7.57
2024-01-27T09:19:15.091Z,7.62
2024-01-27T09:20:14.987Z,7.73
2024-01-27T09:21:14.858Z,7.68
2024-01-27T09:22:14.766Z,7.76
2024-01-27T09:23:14.698Z,7.93
2024-01-27T09:24:16.075Z,7.93
2024-01-27T09:25:14.515Z,8.01
2024-01-27T09:26:14.411Z,8.03
2024-01-27T09:27:14.341Z,8.00
2024-01-27T09:28:14.251Z,8.04
2024-01-27T09:29:14.165Z,8.06
2024-01-27T09:30:14.088Z,8.14
2024-01-27T09:31:14.000Z,8.27
2024-01-27T09:32:13.919Z,8.22
2024-01-27T09:33:13.979Z,8.29
2024-01-27T09:34:13.896Z,8.37
2024-01-27T09:35:13.669Z,8.55
2024-01-27T09:36:13.639Z,8.40
2024-01-27T09:37:13.496Z,8.54
2024-01-27T09:38:13.410Z,8.65
2024-01-27T09:39:13.385Z,8.69
2024-01-27T09:40:13.240Z,8.57
2024-01-27T09:41:13.165Z,8.65
2024-01-27T09:42:13.106Z,8.61
2024-01-27T09:43:12.997Z,8.50
2024-01-27T09:44:12.915Z,8.51
2024-01-27T09:45:12.873Z,8.58
2024-01-27T09:46:12.790Z,8.61
2024-01-27T09:47:12.663Z,8.62
2024-01-27T09:48:12.758Z,8.65
2024-01-27T09:49:12.636Z,8.75
2024-01-27T09:50:12.441Z,8.77
2024-01-27T09:51:12.440Z,8.75
2024-01-27T09:52:12.252Z,8.97
2024-01-27T09:53:12.161Z,9.03
2024-01-27T09:54:12.183Z,9.02
2024-01-27T09:55:11.994Z,9.13
2024-01-27T09:56:12.127Z,9.13
2024-01-27T09:57:11.845Z,9.28
2024-01-27T09:58:11.742Z,9.32
2024-01-27T09:59:11.667Z,9.32
2024-01-27T10:00:11.640Z,9.37
2024-01-27T10:01:11.543Z,9.40
2024-01-27T10:02:11.406Z,9.38
2024-01-27T10:03:11.355Z,9.56
2024-01-27T10:04:11.271Z,9.45
2024-01-27T10:05:11.164Z,9.56
2024-01-27T10:06:11.174Z,9.56
2024-01-27T10:07:11.000Z,9.61
2024-01-27T10:08:10.912Z,9.67
2024-01-27T10:09:10.844Z,9.71
2024-01-27T10:10:10.742Z,9.74
2024-01-27T10:11:10.685Z,9.67
2024-01-27T10:12:10.611Z,9.74
2024-01-27T10:13:10.491Z,9.85
2024-01-27T10:14:10.420Z,9.65
2024-01-27T10:15:10.360Z,9.75
2024-01-27T10:16:10.245Z,9.79
2024-01-27T10:17:10.162Z,9.82
2024-01-27T10:18:10.371Z,9.78
2024-01-27T10:19:10.050Z,9.80
2024-01-27T10:20:10.082Z,9.88
2024-01-27T10:21:09.893Z,9.92
2024-01-27T10:22:09.787Z,9.92
2024-01-27T10:23:09.692Z,9.92
2024-01-27T10:24:09.640Z,9.92
2024-01-27T10:25:09.544Z,9.90
2024-01-27T10:26:09.422Z,9.92
2024-01-27T10:27:09.388Z,9.80
2024-01-27T10:28:09.275Z,9.83
2024-01-27T10:29:09.182Z,9.65
2024-01-27T10:30:09.134Z,9.74
2024-01-27T10:31:09.009Z,9.72
2024-01-27T10:32:08.942Z,9.80
2024-01-27T10:33:08.956Z,9.85
2024-01-27T10:34:08.849Z,10.01
2024-01-27T10:35:08.687Z,10.07
2024-01-27T10:36:08.676Z,10.11
2024-01-27T10:37:08.547Z,10.16
2024-01-27T10:38:08.440Z,10.08
2024-01-27T10:39:08.388Z,10.23
2024-01-27T10:40:08.276Z,10.23
2024-01-27T10:41:08.199Z,10.39
2024-01-27T10:42:08.146Z,10.36
2024-01-27T10:43:08.032Z,10.40
2024-01-27T10:44:07.990Z,10.40
2024-01-27T10:45:07.961Z,10.41
2024-01-27T10:46:07.823Z,10.53
2024-01-27T10:47:07.701Z,10.53
2024-01-27T10:48:07.999Z,10.58
2024-01-27T10:49:07.600Z,10.59
2024-01-27T10:50:07.455Z,10.66
2024-01-27T10:51:07.412Z,10.69
2024-01-27T10:52:07.288Z,10.75
2024-01-27T10:53:07.208Z,10.73
2024-01-27T10:54:07.176Z,10.83
2024-01-27T10:55:07.038Z,10.84
2024-01-27T10:56:06.980Z,10.83
2024-01-27T10:57:06.911Z,10.84
2024-01-27T10:58:06.801Z,10.92
2024-01-27T10:59:06.722Z,10.91
2024-01-27T11:00:06.658Z,10.98
2024-01-27T11:01:06.588Z,10.98
2024-01-27T11:02:06.491Z,10.99
2024-01-27T11:03:06.534Z,10.98
2024-01-27T11:04:06.366Z,10.87
2024-01-27T11:05:06.264Z,10.75
2024-01-27T11:06:06.163Z,10.73
2024-01-27T11:07:06.081Z,10.66
2024-01-27T11:08:05.983Z,10.58
2024-01-27T11:09:05.936Z,10.46
2024-01-27T11:10:05.822Z,10.34
2024-01-27T11:11:05.745Z,10.40
2024-01-27T11:12:05.673Z,10.28
2024-01-27T11:13:05.585Z,10.29
2024-01-27T11:14:05.492Z,10.22
2024-01-27T11:15:05.484Z,10.22
2024-01-27T11:16:05.341Z,10.13
2024-01-27T11:17:05.248Z,10.16
2024-01-27T11:18:05.253Z,10.26
2024-01-27T11:19:05.184Z,10.33
2024-01-27T11:20:05.057Z,10.37
2024-01-27T11:21:05.003Z,10.46
2024-01-27T11:22:04.840Z,10.56
2024-01-27T11:23:04.756Z,10.58
2024-01-27T11:24:04.702Z,10.60
2024-01-27T11:25:04.595Z,10.56
2024-01-27T11:26:04.535Z,10.66
2024-01-27T11:27:04.453Z,10.67
2024-01-27T11:28:04.347Z,10.77
2024-01-27T11:29:04.271Z,10.69
2024-01-27T11:30:04.212Z,10.59
2024-01-27T11:31:04.115Z,10.40
2024-01-27T11:32:04.113Z,10.26
2024-01-27T11:33:04.128Z,10.28
2024-01-27T11:34:03.973Z,10.11
2024-01-27T11:35:04.133Z,10.22
2024-01-27T11:36:03.820Z,10.08
2024-01-27T11:37:03.612Z,10.10
2024-01-27T11:38:03.540Z,10.06
2024-01-27T11:39:03.530Z,10.08
2024-01-27T11:40:03.371Z,10.07
2024-01-27T11:41:03.294Z,10.22
2024-01-27T11:42:03.223Z,10.26
2024-01-27T11:43:05.821Z,10.41
2024-01-27T11:44:03.063Z,10.39
2024-01-27T11:45:03.069Z,10.47
2024-01-27T11:46:02.894Z,10.46
2024-01-27T11:47:02.797Z,10.53
2024-01-27T11:48:02.950Z,10.55
2024-01-27T11:49:02.722Z,10.62
2024-01-27T11:50:02.758Z,10.55
2024-01-27T11:51:02.505Z,10.74
2024-01-27T11:52:02.390Z,10.78
2024-01-27T11:53:02.315Z,10.81
2024-01-27T11:54:02.297Z,10.80
2024-01-27T11:55:02.170Z,10.80
2024-01-27T11:56:02.070Z,10.80
2024-01-27T11:57:02.009Z,10.80
2024-01-27T11:58:01.901Z,10.77
2024-01-27T11:59:01.831Z,10.84
2024-01-27T12:00:01.809Z,10.92
2024-01-27T12:01:01.696Z,10.85
2024-01-27T12:02:01.588Z,10.83
2024-01-27T12:03:01.525Z,10.87
2024-01-27T12:04:01.413Z,10.87
2024-01-27T12:05:01.377Z,10.88
2024-01-27T12:06:01.377Z,10.83
2024-01-27T12:07:01.291Z,10.85
2024-01-27T12:08:01.087Z,10.85
2024-01-27T12:09:01.048Z,10.80
2024-01-27T12:10:00.923Z,10.84
2024-01-27T12:11:00.847Z,10.88
2024-01-27T12:12:00.911Z,10.74
2024-01-27T12:13:00.675Z,10.67
2024-01-27T12:14:00.600Z,10.80
2024-01-27T12:15:00.672Z,10.75
2024-01-27T12:16:00.443Z,10.93
2024-01-27T12:17:00.385Z,10.93
2024-01-27T12:18:00.402Z,10.84
2024-01-27T12:19:00.282Z,10.88
2024-01-27T12:20:00.221Z,10.88
2024-01-27T12:21:00.062Z,10.83
2024-01-27T12:21:59.965Z,10.77
2024-01-27T12:22:59.861Z,10.80
2024-01-27T12:24:01.049Z,10.81
2024-01-27T12:24:59.705Z,10.85
2024-01-27T12:25:59.681Z,10.84
2024-01-27T12:26:59.566Z,10.88
2024-01-27T12:28:00.009Z,10.93
2024-01-27T12:28:59.527Z,10.92
2024-01-27T12:29:59.346Z,11.00
2024-01-27T12:30:59.231Z,10.85
2024-01-27T12:31:59.141Z,10.84
2024-01-27T12:32:59.144Z,10.92
2024-01-27T12:33:59.062Z,10.83
2024-01-27T12:34:59.111Z,10.87
2024-01-27T12:35:58.812Z,10.84
2024-01-27T12:36:58.728Z,10.85
2024-01-27T12:37:58.651Z,10.85
2024-01-27T12:38:58.621Z,10.84
2024-01-27T12:39:58.493Z,10.92
2024-01-27T12:40:58.394Z,11.00
2024-01-27T12:41:58.382Z,10.91
2024-01-27T12:42:58.263Z,10.87
2024-01-27T12:43:58.232Z,10.87
2024-01-27T12:44:58.136Z,10.92
2024-01-27T12:45:58.092Z,10.95
2024-01-27T12:46:57.914Z,10.77
2024-01-27T12:47:57.986Z,10.80
2024-01-27T12:48:57.915Z,10.73
2024-01-27T12:49:57.781Z,10.81
2024-01-27T12:50:57.623Z,10.81
2024-01-27T12:51:57.513Z,10.88
2024-01-27T12:52:57.420Z,11.00
2024-01-27T12:53:57.374Z,10.98
2024-01-27T12:54:57.266Z,11.10
2024-01-27T12:55:57.191Z,11.05
2024-01-27T12:56:57.180Z,10.91
2024-01-27T12:57:57.020Z,10.99
2024-01-27T12:58:56.955Z,10.88
2024-01-27T12:59:56.918Z,10.83
2024-01-27T13:00:56.845Z,10.60
2024-01-27T13:01:56.706Z,10.67
2024-01-27T13:02:56.698Z,10.66
2024-01-27T13:03:56.638Z,10.69
2024-01-27T13:04:56.451Z,10.67
2024-01-27T13:05:56.692Z,10.71
2024-01-27T13:06:56.287Z,10.55
2024-01-27T13:07:56.214Z,10.67
2024-01-27T13:08:56.173Z,10.63
2024-01-27T13:09:56.042Z,10.58
2024-01-27T13:10:55.962Z,10.55
2024-01-27T13:11:55.947Z,10.53